Time;durP1;ratioP1;P1;durP2;ratioP2;P2;SDS_P1;SDS_P2;PMS_P1;PMS_P2;Temp;Humidity;BMP_temperature;BMP_pressure;BME280_temperature;BME280_humidity;BME280_pressure;Samples;Min_cycle;Max_cycle;Signal;HPM_P1;HPM_P2
2023/08/18 00:00:16;;;;;;;9.57;5.38;;;27.90;96.70;;;;;;5087736;28;20578;-72
2023/08/18 00:02:45;;;;;;;7.13;4.75;;;27.90;96.70;;;;;;5092001;28;20097;-72
2023/08/18 00:05:13;;;;;;;8.88;5.38;;;27.90;96.70;;;;;;5072051;28;20143;-72
2023/08/18 00:07:41;;;;;;;7.63;5.13;;;27.90;96.70;;;;;;5068618;28;20053;-72
2023/08/18 00:10:10;;;;;;;7.40;5.00;;;27.80;96.70;;;;;;5068709;28;20129;-72
2023/08/18 00:12:40;;;;;;;7.88;4.93;;;27.90;96.70;;;;;;5069383;28;20080;-72
2023/08/18 00:15:09;;;;;;;7.05;5.18;;;27.80;96.70;;;;;;5081787;28;20132;-72
2023/08/18 00:17:37;;;;;;;7.30;4.70;;;27.70;96.70;;;;;;5068594;28;20045;-72
2023/08/18 00:20:08;;;;;;;6.90;4.68;;;27.70;96.70;;;;;;5087116;28;20152;-72
2023/08/18 00:22:36;;;;;;;6.88;4.78;;;27.60;96.70;;;;;;5087876;28;20040;-73
2023/08/18 00:25:05;;;;;;;4.57;4.07;;;27.50;96.70;;;;;;5086850;28;20075;-73
2023/08/18 00:27:34;;;;;;;5.55;4.38;;;27.40;96.70;;;;;;5068713;28;20042;-72
2023/08/18 00:30:05;;;;;;;7.93;5.00;;;27.30;96.70;;;;;;5042950;28;20162;-72
2023/08/18 00:32:34;;;;;;;7.55;4.60;;;27.40;96.70;;;;;;5047238;28;20044;-72
2023/08/18 00:35:08;;;;;;;6.10;4.90;;;27.30;96.70;;;;;;5045555;28;20064;-71
2023/08/18 00:37:36;;;;;;;6.35;5.00;;;27.30;96.70;;;;;;5047124;28;20045;-73
2023/08/18 00:40:06;;;;;;;6.88;4.43;;;27.30;96.70;;;;;;5048351;28;20132;-72
2023/08/18 00:42:34;;;;;;;7.18;4.70;;;27.30;96.70;;;;;;5045740;28;20063;-71
2023/08/18 00:45:05;;;;;;;5.75;4.40;;;27.30;96.70;;;;;;5061691;28;20163;-71
2023/08/18 00:47:34;;;;;;;4.82;4.05;;;27.30;96.70;;;;;;5050892;28;20049;-72
2023/08/18 00:50:04;;;;;;;6.30;4.63;;;27.40;96.70;;;;;;5036973;28;20152;-73
2023/08/18 00:52:33;;;;;;;5.57;3.75;;;27.30;96.70;;;;;;5046751;28;20044;-72
2023/08/18 00:55:01;;;;;;;4.80;3.95;;;27.30;96.70;;;;;;5050395;28;20409;-72
2023/08/18 00:57:30;;;;;;;5.00;4.00;;;27.20;96.70;;;;;;5049458;28;20077;-73
2023/08/18 00:59:58;;;;;;;5.40;4.03;;;27.20;96.70;;;;;;5056563;28;20437;-73
2023/08/18 01:02:28;;;;;;;4.75;4.13;;;27.20;96.70;;;;;;5036000;28;20052;-73
2023/08/18 01:05:02;;;;;;;5.60;4.13;;;27.10;96.70;;;;;;5050985;28;20053;-72
2023/08/18 01:07:30;;;;;;;4.50;3.80;;;27.00;96.70;;;;;;5046743;28;20517;-72
2023/08/18 01:09:59;;;;;;;6.40;4.20;;;26.90;96.70;;;;;;5057240;28;20116;-72
2023/08/18 01:12:37;;;;;;;4.40;3.65;;;26.90;96.70;;;;;;5045241;28;20057;-72
2023/08/18 01:15:13;;;;;;;5.97;4.53;;;26.90;96.70;;;;;;5039043;28;20037;-73
2023/08/18 01:17:48;;;;;;;4.10;3.63;;;26.90;96.70;;;;;;5035940;28;20514;-72
2023/08/18 01:20:18;;;;;;;6.18;4.10;;;26.80;96.70;;;;;;5051347;28;20048;-73
2023/08/18 01:22:53;;;;;;;4.18;3.75;;;26.80;96.70;;;;;;5045552;28;20055;-73
2023/08/18 01:25:21;;;;;;;6.60;4.05;;;26.80;96.70;;;;;;5050602;28;20033;-73
2023/08/18 01:27:50;;;;;;;4.55;3.75;;;26.80;96.70;;;;;;5054217;28;20424;-72
2023/08/18 01:30:19;;;;;;;4.80;4.40;;;26.70;96.70;;;;;;5047668;28;20418;-72
2023/08/18 01:32:52;;;;;;;6.22;4.18;;;26.80;96.70;;;;;;5046337;28;20132;-72
2023/08/18 01:35:25;;;;;;;4.45;4.00;;;26.70;96.70;;;;;;5044158;28;20095;-73
2023/08/18 01:37:57;;;;;;;8.45;4.47;;;26.60;96.70;;;;;;5043920;28;20136;-72
2023/08/18 01:40:28;;;;;;;6.55;4.18;;;26.70;96.70;;;;;;5045890;28;20557;-72
2023/08/18 01:42:58;;;;;;;6.80;3.90;;;26.80;96.70;;;;;;5044646;28;20060;-72
2023/08/18 01:45:26;;;;;;;7.88;4.30;;;26.70;96.70;;;;;;5043975;28;20791;-72
2023/08/18 01:47:54;;;;;;;7.22;4.25;;;26.70;96.70;;;;;;5046817;28;20037;-72
2023/08/18 01:50:23;;;;;;;6.03;4.75;;;26.70;96.70;;;;;;5046002;28;20178;-72
2023/08/18 01:52:51;;;;;;;5.63;4.93;;;26.70;96.70;;;;;;5045603;28;20041;-72
2023/08/18 01:55:20;;;;;;;6.70;5.15;;;26.70;96.70;;;;;;5043628;28;20118;-73
2023/08/18 01:57:48;;;;;;;7.53;5.10;;;26.60;96.70;;;;;;5032972;28;20410;-72
2023/08/18 02:00:18;;;;;;;9.65;5.85;;;26.50;96.70;;;;;;5050633;28;20578;-73
2023/08/18 02:02:48;;;;;;;8.18;5.30;;;26.40;96.70;;;;;;5028385;28;20059;-72
2023/08/18 02:05:17;;;;;;;6.50;5.07;;;26.40;96.70;;;;;;5043871;28;20154;-73
2023/08/18 02:07:45;;;;;;;8.38;5.32;;;26.30;96.70;;;;;;5044926;28;20049;-72
2023/08/18 02:10:13;;;;;;;5.72;4.55;;;26.30;96.70;;;;;;5023923;28;20064;-72
2023/08/18 02:12:43;;;;;;;8.52;5.03;;;26.20;96.70;;;;;;5043502;28;20053;-72
2023/08/18 02:15:11;;;;;;;7.07;5.10;;;26.30;96.70;;;;;;5043983;28;20049;-72
2023/08/18 02:17:39;;;;;;;6.75;4.95;;;26.20;96.70;;;;;;5027615;28;20103;-72
2023/08/18 02:20:10;;;;;;;6.53;4.50;;;26.10;96.70;;;;;;5042906;28;20037;-71
2023/08/18 02:22:38;;;;;;;6.47;4.85;;;26.10;96.70;;;;;;5027149;28;20044;-72
2023/08/18 02:25:07;;;;;;;6.90;4.85;;;26.10;96.70;;;;;;5050377;28;20161;-72
2023/08/18 02:27:35;;;;;;;6.10;5.38;;;26.20;96.70;;;;;;5043610;28;20435;-73
2023/08/18 02:30:06;;;;;;;6.20;5.03;;;26.30;96.70;;;;;;5073955;28;20535;-72
2023/08/18 02:32:34;;;;;;;8.05;5.50;;;26.30;96.70;;;;;;5066155;28;20062;-73
2023/08/18 02:35:04;;;;;;;8.45;5.03;;;26.30;96.70;;;;;;5066129;28;20135;-72
2023/08/18 02:37:33;;;;;;;10.40;5.20;;;26.20;96.70;;;;;;5065574;28;20055;-72
2023/08/18 02:40:01;;;;;;;5.10;4.60;;;26.10;96.70;;;;;;5076476;28;20134;-73
2023/08/18 02:42:29;;;;;;;5.82;4.60;;;26.20;96.70;;;;;;5049420;28;20040;-72
2023/08/18 02:44:57;;;;;;;4.90;4.28;;;26.30;96.70;;;;;;5065865;28;20499;-72
2023/08/18 02:47:27;;;;;;;5.22;4.72;;;26.30;96.70;;;;;;5066488;28;20608;-72
2023/08/18 02:49:56;;;;;;;9.13;4.93;;;26.20;96.70;;;;;;5069121;28;20070;-72
2023/08/18 02:52:23;;;;;;;5.93;4.32;;;26.30;96.70;;;;;;5046980;28;20039;-72
2023/08/18 02:54:51;;;;;;;6.32;4.90;;;26.30;96.70;;;;;;5066946;28;20051;-73
2023/08/18 02:57:19;;;;;;;10.90;4.55;;;26.30;96.70;;;;;;5054034;28;20401;-73
2023/08/18 02:59:48;;;;;;;4.97;4.47;;;26.30;96.70;;;;;;5062346;28;20043;-72
2023/08/18 03:02:16;;;;;;;5.97;4.13;;;26.30;96.70;;;;;;5066198;28;20043;-72
2023/08/18 03:04:46;;;;;;;8.27;4.70;;;26.30;96.70;;;;;;5065605;28;20064;-71
2023/08/18 03:07:14;;;;;;;8.85;5.63;;;26.30;96.70;;;;;;5065412;28;20042;-71
2023/08/18 03:09:43;;;;;;;6.53;4.82;;;26.10;96.70;;;;;;5066717;28;20139;-72
2023/08/18 03:12:11;;;;;;;5.95;5.15;;;26.20;96.70;;;;;;5083971;28;20417;-72
2023/08/18 03:14:39;;;;;;;8.55;4.57;;;26.10;96.70;;;;;;5078625;28;20137;-76
2023/08/18 03:17:07;;;;;;;9.27;5.25;;;26.20;96.70;;;;;;5073998;28;20060;-76
2023/08/18 03:19:35;;;;;;;15.48;8.85;;;26.10;96.70;;;;;;5065806;28;20055;-76
2023/08/18 03:22:05;;;;;;;19.40;11.70;;;26.00;96.70;;;;;;5065733;28;20072;-75
2023/08/18 03:24:33;;;;;;;13.13;7.45;;;26.00;96.70;;;;;;5065906;28;20054;-76
2023/08/18 03:27:01;;;;;;;8.95;5.97;;;26.10;96.70;;;;;;5065775;28;20044;-75
2023/08/18 03:29:29;;;;;;;9.32;4.80;;;25.80;96.70;;;;;;5055575;28;20063;-76
2023/08/18 03:31:57;;;;;;;6.72;4.35;;;25.60;96.70;;;;;;5075275;28;20063;-75
2023/08/18 03:34:27;;;;;;;8.75;4.10;;;25.20;96.70;;;;;;5065602;28;20075;-76
2023/08/18 03:36:54;;;;;;;7.38;3.88;;;25.00;96.70;;;;;;5065216;28;20056;-76
2023/08/18 03:39:24;;;;;;;7.18;4.30;;;25.30;96.70;;;;;;5075844;28;20040;-77
2023/08/18 03:41:52;;;;;;;5.10;3.78;;;25.50;96.70;;;;;;5084767;28;20122;-77
2023/08/18 03:44:20;;;;;;;7.53;4.40;;;25.60;96.70;;;;;;5064992;28;20040;-76
2023/08/18 03:46:48;;;;;;;8.45;4.18;;;25.50;96.70;;;;;;5064904;28;20036;-76
2023/08/18 03:49:16;;;;;;;7.65;3.72;;;25.40;96.70;;;;;;5063705;28;20087;-77
2023/08/18 03:51:44;;;;;;;5.75;4.07;;;25.50;96.70;;;;;;5049148;28;20048;-77
2023/08/18 03:54:12;;;;;;;5.82;4.20;;;25.60;96.70;;;;;;5066437;28;20036;-76
2023/08/18 03:56:41;;;;;;;6.60;4.30;;;25.70;96.70;;;;;;5065751;28;20040;-76
2023/08/18 03:59:09;;;;;;;6.07;4.32;;;25.80;96.70;;;;;;5048605;28;20044;-76
2023/08/18 04:01:38;;;;;;;7.45;4.57;;;25.80;96.70;;;;;;5064363;28;20386;-76
2023/08/18 04:04:06;;;;;;;9.45;5.63;;;25.80;96.70;;;;;;5065730;28;20060;-76
2023/08/18 04:06:34;;;;;;;10.32;5.68;;;25.70;96.70;;;;;;5083956;28;20047;-76
2023/08/18 04:09:06;;;;;;;9.65;5.43;;;25.60;96.70;;;;;;5084092;28;20093;-76
2023/08/18 04:11:35;;;;;;;10.07;6.53;;;25.60;96.70;;;;;;5073256;28;20527;-76
2023/08/18 04:14:05;;;;;;;9.60;6.22;;;25.60;96.70;;;;;;5063812;28;20040;-76
2023/08/18 04:16:33;;;;;;;6.53;5.43;;;25.60;96.70;;;;;;5046173;28;20545;-76
2023/08/18 04:19:03;;;;;;;7.57;5.13;;;25.70;96.70;;;;;;5066750;28;20041;-76
2023/08/18 04:21:33;;;;;;;8.82;6.22;;;25.70;96.70;;;;;;5049323;28;20048;-75
2023/08/18 04:24:02;;;;;;;7.35;5.35;;;25.70;96.70;;;;;;5065507;28;20040;-76
2023/08/18 04:26:31;;;;;;;10.77;5.70;;;25.60;96.70;;;;;;5064643;28;20044;-75
2023/08/18 04:29:00;;;;;;;6.50;5.03;;;25.60;96.70;;;;;;5062289;28;20369;-75
2023/08/18 04:31:31;;;;;;;7.25;5.28;;;25.60;96.70;;;;;;5067023;28;20549;-75
2023/08/18 04:34:00;;;;;;;10.15;6.28;;;25.60;96.70;;;;;;5075669;28;20209;-75
2023/08/18 04:36:28;;;;;;;9.38;5.93;;;25.70;96.70;;;;;;5066610;28;20459;-76
2023/08/18 04:38:56;;;;;;;8.90;5.85;;;25.70;96.70;;;;;;5083120;28;20401;-76
2023/08/18 04:41:30;;;;;;;7.85;5.70;;;25.60;96.70;;;;;;5070112;28;20041;-76
2023/08/18 04:43:58;;;;;;;8.38;5.57;;;25.60;96.70;;;;;;5063502;28;20067;-76
2023/08/18 04:46:30;;;;;;;7.57;5.47;;;25.60;96.70;;;;;;5067356;28;20112;-75
2023/08/18 04:49:03;;;;;;;9.02;5.78;;;25.50;96.70;;;;;;5068925;28;20685;-76
2023/08/18 04:51:31;;;;;;;7.25;5.38;;;25.60;96.70;;;;;;5058885;28;20072;-75
2023/08/18 04:53:59;;;;;;;9.10;5.72;;;25.60;96.70;;;;;;5052217;28;20059;-76
2023/08/18 04:56:27;;;;;;;9.07;5.22;;;25.50;96.70;;;;;;5068873;28;20078;-75
2023/08/18 04:58:55;;;;;;;7.57;5.22;;;25.50;96.70;;;;;;5068317;28;20046;-75
2023/08/18 05:01:24;;;;;;;11.73;5.45;;;25.50;96.70;;;;;;5049099;28;20110;-75
2023/08/18 05:03:54;;;;;;;6.85;4.90;;;25.50;96.70;;;;;;5067742;28;20071;-76
2023/08/18 05:06:22;;;;;;;5.80;4.85;;;25.50;96.70;;;;;;5086838;28;20505;-75
2023/08/18 05:08:50;;;;;;;6.97;4.93;;;25.50;96.70;;;;;;5067633;28;20046;-75
2023/08/18 05:11:18;;;;;;;7.47;4.68;;;25.40;96.70;;;;;;5064820;28;20044;-75
2023/08/18 05:13:46;;;;;;;4.68;4.13;;;25.40;96.70;;;;;;5067656;28;20645;-75
2023/08/18 05:16:14;;;;;;;5.55;4.45;;;25.30;96.70;;;;;;5068806;28;20049;-75
2023/08/18 05:18:42;;;;;;;8.15;5.07;;;25.40;96.70;;;;;;5067189;28;20054;-76
2023/08/18 05:21:11;;;;;;;9.85;4.57;;;25.40;96.70;;;;;;5069493;28;20461;-75
2023/08/18 05:23:49;;;;;;;7.30;4.72;;;25.40;96.70;;;;;;5075302;28;20063;-75
2023/08/18 05:26:18;;;;;;;6.95;4.90;;;25.30;96.70;;;;;;5079433;28;20042;-78
2023/08/18 05:28:47;;;;;;;7.75;5.00;;;25.50;96.70;;;;;;5076351;28;20049;-76
2023/08/18 05:31:16;;;;;;;9.73;4.95;;;25.60;96.70;;;;;;5057591;28;20501;-76
2023/08/18 05:33:44;;;;;;;7.07;5.20;;;25.60;96.70;;;;;;5058243;28;20077;-76
2023/08/18 05:36:14;;;;;;;7.43;5.38;;;25.60;96.70;;;;;;5068217;28;20455;-76
2023/08/18 05:38:42;;;;;;;7.47;4.60;;;25.70;96.70;;;;;;5068129;28;20386;-76
2023/08/18 05:41:12;;;;;;;6.95;5.28;;;25.80;96.70;;;;;;5081376;28;20410;-76
2023/08/18 05:43:40;;;;;;;6.30;5.45;;;25.70;96.70;;;;;;5075929;28;20060;-76
2023/08/18 05:46:09;;;;;;;6.07;4.95;;;25.70;96.70;;;;;;5064756;28;20040;-76
2023/08/18 05:48:37;;;;;;;10.10;5.75;;;25.60;96.70;;;;;;5070606;28;20036;-77
2023/08/18 05:51:05;;;;;;;7.40;5.13;;;25.60;96.70;;;;;;5048298;28;20037;-76
2023/08/18 05:53:34;;;;;;;6.15;5.05;;;25.80;96.70;;;;;;5076273;28;20067;-76
2023/08/18 05:56:02;;;;;;;6.68;5.13;;;25.80;96.70;;;;;;5075616;28;20073;-76
2023/08/18 05:58:30;;;;;;;7.78;5.40;;;25.80;96.70;;;;;;5067576;28;20129;-76
2023/08/18 06:00:58;;;;;;;6.28;4.85;;;25.80;96.70;;;;;;5051029;28;20501;-77
2023/08/18 06:03:26;;;;;;;8.05;5.13;;;25.90;96.70;;;;;;5072722;28;20055;-76
2023/08/18 06:06:05;;;;;;;6.72;5.55;;;26.00;96.70;;;;;;5068690;28;20497;-76
2023/08/18 06:08:35;;;;;;;7.53;5.03;;;25.90;96.70;;;;;;5066494;28;20055;-76
2023/08/18 06:11:03;;;;;;;8.52;5.85;;;26.00;96.70;;;;;;5064466;28;20090;-76
2023/08/18 06:13:31;;;;;;;9.18;5.63;;;26.10;96.70;;;;;;5067282;28;20088;-76
2023/08/18 06:16:03;;;;;;;7.85;5.43;;;26.20;96.70;;;;;;5069659;28;20123;-76
2023/08/18 06:18:32;;;;;;;6.35;5.43;;;26.20;96.70;;;;;;5073706;28;20564;-76
2023/08/18 06:21:01;;;;;;;7.75;5.88;;;26.20;96.70;;;;;;5066501;28;20047;-76
2023/08/18 06:23:29;;;;;;;8.98;6.13;;;26.20;96.70;;;;;;5066738;28;20044;-76
2023/08/18 06:25:58;;;;;;;9.63;5.20;;;26.20;96.70;;;;;;5066929;28;20042;-76
2023/08/18 06:28:26;;;;;;;8.07;5.65;;;26.20;96.70;;;;;;5058099;28;20048;-76
2023/08/18 06:31:03;;;;;;;10.55;6.18;;;26.10;96.70;;;;;;5082963;28;20498;-76
2023/08/18 06:33:31;;;;;;;8.10;5.82;;;26.10;96.70;;;;;;5053854;28;20561;-76
2023/08/18 06:35:59;;;;;;;9.77;5.90;;;26.20;96.70;;;;;;5069813;28;20474;-77
2023/08/18 06:38:27;;;;;;;8.95;5.47;;;26.10;96.70;;;;;;5081638;28;20044;-76
2023/08/18 06:40:55;;;;;;;7.10;5.15;;;26.20;96.70;;;;;;5067280;28;20046;-77
2023/08/18 06:43:24;;;;;;;9.18;5.53;;;26.30;96.70;;;;;;5050119;28;20134;-79
2023/08/18 06:45:52;;;;;;;6.55;5.22;;;26.30;96.70;;;;;;5065319;28;20656;-77
2023/08/18 06:48:20;;;;;;;7.85;5.38;;;26.30;96.70;;;;;;5058640;28;20104;-77
2023/08/18 06:50:49;;;;;;;9.50;5.75;;;26.40;96.70;;;;;;5084939;28;20055;-76
2023/08/18 06:53:17;;;;;;;7.82;5.15;;;26.50;96.70;;;;;;5084716;28;20114;-76
2023/08/18 06:55:45;;;;;;;8.23;5.45;;;26.50;96.70;;;;;;5077526;28;20124;-77
2023/08/18 06:58:31;;;;;;;8.98;5.70;;;26.60;96.70;;;;;;5065513;28;20048;-78
2023/08/18 07:00:59;;;;;;;9.60;5.72;;;26.60;96.70;;;;;;5062193;28;20410;-78
2023/08/18 07:03:27;;;;;;;8.77;5.32;;;26.70;96.70;;;;;;5079368;28;20044;-77
2023/08/18 07:05:57;;;;;;;9.10;5.30;;;26.70;96.70;;;;;;5077432;28;20433;-76
2023/08/18 07:08:26;;;;;;;5.95;4.88;;;26.70;96.70;;;;;;5076452;28;20494;-77
2023/08/18 07:10:54;;;;;;;8.10;5.68;;;26.80;96.70;;;;;;5070354;28;20154;-77
2023/08/18 07:13:22;;;;;;;10.05;5.13;;;26.90;96.70;;;;;;5066402;28;20075;-75
2023/08/18 07:15:52;;;;;;;7.72;5.28;;;26.90;96.70;;;;;;5052339;28;20043;-75
2023/08/18 07:18:20;;;;;;;7.82;5.35;;;27.00;96.70;;;;;;5073100;28;20054;-75
2023/08/18 07:20:49;;;;;;;6.03;5.22;;;27.00;96.70;;;;;;5069334;28;20057;-76
2023/08/18 07:23:18;;;;;;;9.30;5.38;;;27.10;96.70;;;;;;5064356;28;20044;-75
2023/08/18 07:25:47;;;;;;;10.57;5.53;;;27.20;96.70;;;;;;5058400;28;20355;-75
2023/08/18 07:28:15;;;;;;;10.15;6.03;;;27.20;96.70;;;;;;5062133;28;20759;-75
2023/08/18 07:30:45;;;;;;;7.20;5.63;;;27.30;96.70;;;;;;5070055;28;20132;-75
2023/08/18 07:33:15;;;;;;;6.18;5.47;;;27.30;96.70;;;;;;5069125;28;20078;-75
2023/08/18 07:35:43;;;;;;;8.90;5.68;;;27.40;96.70;;;;;;5085632;28;20097;-75
2023/08/18 07:38:11;;;;;;;7.85;6.65;;;27.50;96.70;;;;;;5090381;28;20428;-75
2023/08/18 07:40:41;;;;;;;8.70;6.70;;;27.50;96.70;;;;;;5083543;28;20048;-75
2023/08/18 07:43:10;;;;;;;8.52;6.22;;;27.50;96.70;;;;;;5068535;28;20032;-75
2023/08/18 07:45:38;;;;;;;10.57;6.00;;;27.60;96.70;;;;;;5054033;28;20071;-75
2023/08/18 07:48:07;;;;;;;8.32;5.55;;;27.60;96.70;;;;;;5067008;28;20048;-75
2023/08/18 07:50:37;;;;;;;10.65;7.68;;;27.70;96.70;;;;;;5052886;28;20108;-75
2023/08/18 07:53:05;;;;;;;9.57;6.47;;;27.70;96.70;;;;;;5069282;28;20051;-75
2023/08/18 07:55:33;;;;;;;7.43;6.10;;;27.70;96.70;;;;;;5069516;28;20056;-74
2023/08/18 07:58:03;;;;;;;9.48;6.93;;;27.80;96.70;;;;;;5068786;28;21236;-74
2023/08/18 08:00:32;;;;;;;9.52;5.55;;;27.90;96.70;;;;;;5084993;28;20147;-76
2023/08/18 08:03:00;;;;;;;7.07;6.13;;;28.00;96.70;;;;;;5064469;28;20131;-76
2023/08/18 08:05:29;;;;;;;8.48;6.00;;;28.00;96.70;;;;;;5075139;28;20044;-75
2023/08/18 08:07:58;;;;;;;8.20;5.95;;;28.10;96.70;;;;;;5065240;28;20039;-76
2023/08/18 08:10:27;;;;;;;7.07;6.00;;;28.10;96.70;;;;;;5064795;28;20129;-75
2023/08/18 08:12:55;;;;;;;6.88;5.20;;;28.10;96.70;;;;;;5076727;28;20506;-76
2023/08/18 08:15:23;;;;;;;9.07;5.28;;;28.10;96.70;;;;;;5086304;28;20083;-75
2023/08/18 08:17:52;;;;;;;7.25;6.50;;;28.20;96.70;;;;;;5083712;28;20040;-75
2023/08/18 08:20:20;;;;;;;10.18;5.75;;;28.30;96.70;;;;;;5066168;28;20048;-75
2023/08/18 08:22:50;;;;;;;9.27;5.15;;;28.40;96.70;;;;;;5068943;28;20035;-75
2023/08/18 08:25:20;;;;;;;12.30;8.23;;;28.50;96.70;;;;;;5052159;28;20129;-75
2023/08/18 08:27:51;;;;;;;8.52;6.72;;;28.60;96.70;;;;;;5052640;28;20409;-74
2023/08/18 08:30:26;;;;;;;7.35;6.00;;;28.70;96.70;;;;;;5071336;28;20348;-75
2023/08/18 08:33:04;;;;;;;6.50;5.20;;;28.70;96.70;;;;;;5080208;28;20051;-76
2023/08/18 08:35:35;;;;;;;7.43;5.80;;;28.80;96.70;;;;;;5084575;28;20494;-75
2023/08/18 08:38:04;;;;;;;7.78;5.68;;;28.80;96.70;;;;;;5068756;28;20036;-75
2023/08/18 08:40:34;;;;;;;6.43;5.82;;;28.80;96.70;;;;;;5050610;28;20089;-75
2023/08/18 08:43:02;;;;;;;6.88;5.45;;;28.80;96.70;;;;;;5051740;28;20400;-74
2023/08/18 08:45:33;;;;;;;9.32;6.05;;;28.90;96.70;;;;;;5072263;28;20064;-75
2023/08/18 08:48:07;;;;;;;7.82;6.22;;;29.00;96.70;;;;;;5052749;28;20405;-76
2023/08/18 08:50:40;;;;;;;8.20;5.93;;;29.10;96.70;;;;;;5068713;28;20044;-76
2023/08/18 08:53:13;;;;;;;7.07;6.35;;;29.20;96.70;;;;;;5081752;28;20053;-77
2023/08/18 08:55:45;;;;;;;7.65;6.32;;;29.30;96.70;;;;;;5068149;28;20148;-78
2023/08/18 08:58:15;;;;;;;6.30;5.70;;;29.40;96.70;;;;;;5095074;28;20059;-76
2023/08/18 09:00:54;;;;;;;9.32;6.07;;;29.40;96.70;;;;;;5078960;28;20044;-77
2023/08/18 09:03:22;;;;;;;8.05;5.55;;;29.60;96.70;;;;;;5066575;28;20052;-77
2023/08/18 09:05:50;;;;;;;6.55;5.47;;;29.60;96.70;;;;;;5089461;28;20063;-78
2023/08/18 09:08:19;;;;;;;8.35;6.45;;;29.60;96.70;;;;;;5085999;28;20043;-77
2023/08/18 09:10:48;;;;;;;7.68;6.72;;;29.70;96.70;;;;;;5069652;28;20494;-77
2023/08/18 09:13:17;;;;;;;8.40;6.60;;;29.80;96.70;;;;;;5067239;28;20066;-78
2023/08/18 09:15:47;;;;;;;7.30;6.10;;;29.90;96.70;;;;;;5089735;28;21550;-78
2023/08/18 09:18:15;;;;;;;8.00;5.97;;;30.10;96.70;;;;;;5058091;28;20066;-77
2023/08/18 09:20:44;;;;;;;9.07;6.32;;;30.20;96.70;;;;;;5090124;28;20076;-78
2023/08/18 09:23:12;;;;;;;7.55;6.43;;;30.30;96.70;;;;;;5066666;28;20106;-76
2023/08/18 09:25:41;;;;;;;9.77;6.78;;;30.40;96.70;;;;;;5066510;28;20554;-77
2023/08/18 09:28:10;;;;;;;7.15;6.15;;;30.30;96.70;;;;;;5067175;28;20052;-77
2023/08/18 09:30:43;;;;;;;8.38;6.45;;;30.30;96.70;;;;;;5075155;28;20048;-77
2023/08/18 09:33:11;;;;;;;8.40;6.00;;;30.40;96.70;;;;;;5072144;28;20127;-78
2023/08/18 09:35:39;;;;;;;7.38;6.20;;;30.50;96.70;;;;;;5064953;28;20067;-77
2023/08/18 09:38:12;;;;;;;11.30;6.22;;;30.60;96.70;;;;;;5066259;28;20051;-78
2023/08/18 09:40:41;;;;;;;8.63;6.07;;;30.70;96.70;;;;;;5058204;28;20053;-77
2023/08/18 09:43:10;;;;;;;6.78;6.15;;;30.90;96.70;;;;;;5066349;28;20553;-80
2023/08/18 09:45:40;;;;;;;6.43;5.70;;;30.90;96.70;;;;;;5066298;28;20143;-78
2023/08/18 09:48:11;;;;;;;6.43;5.55;;;31.00;96.70;;;;;;5066980;28;20236;-78
2023/08/18 09:50:41;;;;;;;6.07;5.47;;;31.00;96.70;;;;;;5066359;28;20056;-78
2023/08/18 09:53:21;;;;;;;7.50;5.00;;;31.10;96.70;;;;;;5065816;28;20114;-79
2023/08/18 09:55:52;;;;;;;6.88;5.13;;;31.20;96.70;;;;;;5065363;28;20045;-78
2023/08/18 09:58:29;;;;;;;9.82;5.35;;;31.30;96.70;;;;;;5066081;28;20048;-77
2023/08/18 10:00:58;;;;;;;6.65;5.13;;;31.50;96.70;;;;;;5081307;28;20117;-78
2023/08/18 10:03:26;;;;;;;4.82;4.40;;;31.50;96.70;;;;;;5064457;28;20071;-78
2023/08/18 10:05:56;;;;;;;6.78;4.55;;;31.60;96.70;;;;;;5064133;28;20143;-78
2023/08/18 10:08:25;;;;;;;6.65;4.80;;;31.70;96.70;;;;;;5065357;28;20091;-79
2023/08/18 10:10:54;;;;;;;7.97;4.57;;;31.90;96.70;;;;;;5064994;28;20052;-78
2023/08/18 10:13:24;;;;;;;6.20;5.10;;;32.00;96.70;;;;;;5063339;28;20040;-79
2023/08/18 10:15:53;;;;;;;5.07;4.57;;;32.00;96.70;;;;;;5065787;28;20578;-78
2023/08/18 10:18:23;;;;;;;5.85;5.35;;;32.20;96.70;;;;;;5063787;28;20086;-78
2023/08/18 10:20:52;;;;;;;6.15;4.88;;;32.20;96.70;;;;;;5063675;28;20519;-78
2023/08/18 10:23:23;;;;;;;6.75;4.65;;;32.40;96.70;;;;;;5059530;28;20051;-78
2023/08/18 10:25:53;;;;;;;5.38;4.35;;;32.40;96.70;;;;;;5063411;28;20402;-78
2023/08/18 10:28:27;;;;;;;5.00;4.50;;;32.30;96.70;;;;;;5063850;28;20041;-77
2023/08/18 10:30:59;;;;;;;8.23;5.05;;;32.40;96.70;;;;;;5065450;28;20132;-78
2023/08/18 10:33:30;;;;;;;7.18;4.90;;;32.40;96.70;;;;;;5084101;28;20044;-78
2023/08/18 10:36:02;;;;;;;5.55;4.22;;;32.40;96.70;;;;;;5065295;28;20048;-78
2023/08/18 10:38:32;;;;;;;7.03;4.88;;;32.40;96.70;;;;;;5058551;28;20140;-77
2023/08/18 10:41:01;;;;;;;7.38;5.00;;;32.50;96.70;;;;;;5084544;28;20127;-77
2023/08/18 10:43:41;;;;;;;9.02;4.80;;;32.70;96.70;;;;;;5066920;28;20043;-78
2023/08/18 10:46:13;;;;;;;5.90;4.65;;;32.70;96.70;;;;;;5075158;28;20139;-77
2023/08/18 10:48:42;;;;;;;5.82;4.80;;;32.70;96.70;;;;;;5064966;28;20157;-78
2023/08/18 10:51:10;;;;;;;6.03;4.50;;;32.80;96.70;;;;;;5077041;28;20750;-78
2023/08/18 10:53:40;;;;;;;4.78;4.38;;;33.00;96.70;;;;;;5065640;28;20051;-76
2023/08/18 10:56:08;;;;;;;5.63;4.30;;;33.10;96.70;;;;;;5065717;28;20052;-78
2023/08/18 10:58:38;;;;;;;5.03;4.63;;;33.10;96.70;;;;;;5065890;28;20032;-78
2023/08/18 11:01:09;;;;;;;5.43;4.35;;;33.20;96.70;;;;;;5057180;28;20048;-78
2023/08/18 11:03:38;;;;;;;5.47;4.53;;;33.40;96.70;;;;;;5049548;28;20081;-78
2023/08/18 11:06:06;;;;;;;4.65;4.25;;;33.50;96.70;;;;;;5084438;28;20127;-78
2023/08/18 11:08:36;;;;;;;5.20;4.10;;;33.70;96.70;;;;;;5049005;28;20090;-78
2023/08/18 11:11:04;;;;;;;5.75;4.40;;;33.80;96.70;;;;;;5075256;28;20040;-79
2023/08/18 11:13:32;;;;;;;7.43;4.38;;;33.70;96.70;;;;;;5074529;28;20048;-78
2023/08/18 11:16:02;;;;;;;5.15;4.20;;;33.80;96.70;;;;;;5065825;28;20718;-78
2023/08/18 11:18:31;;;;;;;5.18;4.45;;;34.10;96.70;;;;;;5064180;28;20044;-78
2023/08/18 11:20:59;;;;;;;5.80;3.83;;;34.30;96.70;;;;;;5068880;28;20043;-78
2023/08/18 11:23:28;;;;;;;4.90;4.20;;;34.50;96.70;;;;;;5075777;28;20557;-78
2023/08/18 11:25:56;;;;;;;5.32;4.22;;;34.60;96.70;;;;;;5083820;28;20075;-77
2023/08/18 11:28:25;;;;;;;5.25;4.25;;;34.70;96.70;;;;;;5047001;28;20090;-78
2023/08/18 11:30:55;;;;;;;5.57;4.22;;;34.90;96.70;;;;;;5065829;28;20167;-78
2023/08/18 11:33:26;;;;;;;4.47;3.90;;;34.80;96.70;;;;;;5069216;28;20482;-78
2023/08/18 11:36:11;;;;;;;5.38;3.80;;;34.70;96.70;;;;;;5066008;28;20051;-78
2023/08/18 11:38:41;;;;;;;4.85;4.32;;;35.00;96.70;;;;;;5065772;28;20126;-78
2023/08/18 11:41:09;;;;;;;4.97;3.65;;;35.20;96.70;;;;;;5079399;28;20421;-79
2023/08/18 11:43:37;;;;;;;5.18;3.42;;;35.10;96.70;;;;;;5074908;28;20055;-79
2023/08/18 11:46:05;;;;;;;6.45;4.10;;;34.80;96.70;;;;;;5064888;28;20044;-78
2023/08/18 11:48:35;;;;;;;4.85;3.95;;;34.70;96.70;;;;;;5073608;28;20051;-79
2023/08/18 11:51:03;;;;;;;4.25;3.85;;;34.70;96.70;;;;;;5069790;28;20125;-79
2023/08/18 11:53:32;;;;;;;4.93;3.58;;;34.70;96.70;;;;;;5069145;28;20505;-79
2023/08/18 11:56:00;;;;;;;5.43;3.63;;;34.80;96.70;;;;;;5079004;28;20413;-78
2023/08/18 11:58:28;;;;;;;3.92;3.63;;;35.10;96.70;;;;;;5070438;28;20074;-78
2023/08/18 12:00:58;;;;;;;4.50;3.70;;;35.30;96.70;;;;;;5069944;28;20490;-79
2023/08/18 12:03:28;;;;;;;5.82;3.95;;;35.30;96.70;;;;;;5069456;28;20486;-79
2023/08/18 12:05:59;;;;;;;7.28;3.60;;;35.70;96.70;;;;;;5053419;28;20135;-78
2023/08/18 12:08:27;;;;;;;5.63;3.50;;;35.80;96.70;;;;;;5087679;28;20044;-79
2023/08/18 12:10:57;;;;;;;4.22;3.80;;;36.10;96.70;;;;;;5081043;28;20044;-78
2023/08/18 12:13:33;;;;;;;4.18;3.78;;;36.10;96.70;;;;;;5086836;28;20044;-79
2023/08/18 12:16:02;;;;;;;6.65;3.50;;;36.10;96.70;;;;;;5080030;28;20047;-78
2023/08/18 12:18:30;;;;;;;5.05;3.50;;;36.00;96.70;;;;;;5069049;28;20048;-78
2023/08/18 12:21:00;;;;;;;7.40;3.60;;;36.00;96.70;;;;;;5052797;28;20051;-78
2023/08/18 12:23:28;;;;;;;4.80;3.80;;;36.20;96.70;;;;;;5066854;28;20050;-78
2023/08/18 12:25:57;;;;;;;5.53;3.47;;;36.20;96.70;;;;;;5068815;28;20046;-79
2023/08/18 12:28:25;;;;;;;6.03;3.53;;;36.20;96.70;;;;;;5077080;28;20044;-79
2023/08/18 12:30:53;;;;;;;6.13;3.72;;;36.40;96.70;;;;;;5068280;28;20443;-79
2023/08/18 12:33:23;;;;;;;5.22;3.75;;;36.70;96.70;;;;;;5069544;28;20044;-79
2023/08/18 12:35:52;;;;;;;3.65;3.35;;;36.70;96.70;;;;;;5080375;28;20049;-78
2023/08/18 12:38:22;;;;;;;6.20;3.45;;;36.60;96.70;;;;;;5069128;28;20044;-78
2023/08/18 12:40:52;;;;;;;4.95;3.28;;;36.50;96.70;;;;;;5068814;28;20137;-79
2023/08/18 12:43:20;;;;;;;4.93;3.40;;;36.40;96.70;;;;;;5080674;28;20493;-79
2023/08/18 12:45:48;;;;;;;5.80;3.45;;;36.50;96.70;;;;;;5068717;28;20540;-79
2023/08/18 12:48:16;;;;;;;6.22;3.50;;;36.50;96.70;;;;;;5080895;28;20047;-79
2023/08/18 12:51:05;;;;;;;3.83;3.00;;;36.50;96.70;;;;;;5087174;28;20048;-79
2023/08/18 12:53:35;;;;;;;5.93;2.80;;;36.50;96.70;;;;;;5041768;28;20057;-79
2023/08/18 12:56:04;;;;;;;5.45;2.97;;;36.60;96.70;;;;;;5067856;28;20060;-79